createdAt,value
2023-03-28T00:02:41.534Z,28.39
2023-03-28T00:07:46.908Z,26.87
2023-03-28T00:12:52.403Z,27.48
2023-03-28T00:17:57.770Z,26.78
2023-03-28T00:23:05.348Z,26.68
2023-03-28T00:28:10.932Z,27.41
2023-03-28T00:33:16.041Z,26.59
2023-03-28T00:38:22.453Z,26.69
2023-03-28T00:43:42.927Z,25.52
2023-03-28T00:48:54.269Z,25.89
2023-03-28T00:54:03.255Z,25.84
2023-03-28T00:59:13.373Z,26.95
2023-03-28T01:04:21.709Z,26.70
2023-03-28T01:09:29.655Z,26.57
2023-03-28T01:14:39.289Z,26.63
2023-03-28T01:20:06.383Z,26.08
2023-03-28T01:25:26.351Z,26.12
2023-03-28T01:30:49.302Z,25.54
2023-03-28T01:36:58.196Z,25.47
2023-03-28T01:42:30.082Z,26.11
2023-03-28T01:47:46.062Z,26.40
2023-03-28T01:53:29.075Z,25.19
2023-03-28T01:59:01.756Z,24.93
2023-03-28T02:04:30.408Z,25.26
2023-03-28T02:09:40.428Z,25.28
2023-03-28T02:15:00.414Z,25.44
2023-03-28T02:20:39.112Z,24.76
2023-03-28T02:26:04.662Z,24.81
2023-03-28T02:31:17.813Z,25.24
2023-03-28T02:36:45.412Z,25.13
2023-03-28T02:42:15.669Z,24.78
2023-03-28T02:47:20.827Z,24.43
2023-03-28T02:52:54.625Z,24.32
2023-03-28T02:58:26.026Z,24.50
2023-03-28T03:03:33.767Z,23.94
2023-03-28T03:08:38.668Z,23.96
2023-03-28T03:13:45.355Z,23.92
2023-03-28T03:18:50.621Z,24.22
2023-03-28T03:23:57.268Z,23.67
2023-03-28T03:29:04.291Z,23.70
2023-03-28T03:34:10.278Z,23.83
2023-03-28T03:39:20.792Z,23.95
2023-03-28T03:44:26.177Z,23.95
2023-03-28T03:49:31.789Z,23.18
2023-03-28T03:54:41.501Z,23.56
2023-03-28T03:59:49.417Z,23.75
2023-03-28T04:04:55.868Z,23.06
2023-03-28T04:10:23.955Z,23.42
2023-03-28T04:15:29.282Z,23.54
2023-03-28T04:21:03.592Z,23.60
2023-03-28T04:26:21.660Z,23.40
2023-03-28T04:31:37.030Z,23.06
2023-03-28T04:36:48.545Z,23.65
2023-03-28T04:41:56.844Z,23.31
2023-03-28T04:47:09.802Z,23.00
2023-03-28T04:52:16.608Z,23.35
2023-03-28T04:57:24.596Z,22.75
2023-03-28T05:02:36.722Z,23.19
2023-03-28T05:07:43.773Z,22.63
2023-03-28T05:12:50.438Z,23.06
2023-03-28T05:17:55.888Z,23.15
2023-03-28T05:23:19.239Z,23.01
2023-03-28T05:28:29.301Z,23.23
2023-03-28T05:33:34.913Z,23.26
2023-03-28T05:38:42.483Z,23.55
2023-03-28T05:43:54.220Z,23.32
2023-03-28T05:49:19.085Z,22.90
2023-03-28T05:54:29.707Z,23.27
2023-03-28T05:59:41.893Z,23.31
2023-03-28T06:04:50.104Z,22.96
2023-03-28T06:09:56.646Z,22.82
2023-03-28T06:15:02.500Z,23.10
2023-03-28T06:20:13.526Z,22.89
2023-03-28T06:25:20.308Z,23.01
2023-03-28T06:30:25.717Z,23.09
2023-03-28T06:35:31.715Z,22.82
2023-03-28T06:40:37.032Z,22.88
2023-03-28T06:45:42.852Z,23.47
2023-03-28T06:50:54.108Z,23.37
2023-03-28T06:56:02.260Z,23.57
2023-03-28T07:01:09.524Z,23.05
2023-03-28T07:06:29.428Z,23.32
2023-03-28T07:11:34.886Z,23.62
2023-03-28T07:16:40.310Z,23.74
2023-03-28T07:21:47.796Z,24.15
2023-03-28T07:27:01.218Z,23.79
2023-03-28T07:32:18.524Z,23.69
2023-03-28T07:37:23.847Z,23.68
2023-03-28T07:42:41.622Z,23.77
2023-03-28T07:47:48.361Z,23.71
2023-03-28T07:52:59.814Z,23.44
2023-03-28T07:58:10.137Z,23.86
2023-03-28T08:03:19.978Z,24.03
2023-03-28T08:08:25.436Z,24.24
2023-03-28T08:13:44.124Z,24.29
2023-03-28T08:19:09.446Z,24.40
2023-03-28T08:24:35.327Z,24.43
2023-03-28T08:29:49.049Z,24.46
2023-03-28T08:34:54.577Z,24.56
2023-03-28T08:40:00.587Z,24.66
2023-03-28T08:45:17.261Z,24.76
2023-03-28T08:50:37.998Z,24.49
2023-03-28T08:55:44.912Z,24.92
2023-03-28T09:00:52.774Z,25.14
2023-03-28T09:06:06.952Z,24.50
2023-03-28T09:11:35.039Z,24.51
2023-03-28T09:16:53.124Z,24.59
2023-03-28T09:22:31.072Z,24.74
2023-03-28T09:28:13.035Z,24.75
2023-03-28T09:33:40.309Z,25.24
2023-03-28T09:39:15.784Z,24.83
2023-03-28T09:44:23.427Z,25.68
2023-03-28T09:49:52.375Z,25.76
2023-03-28T09:55:02.967Z,25.82
2023-03-28T10:00:24.643Z,25.07
2023-03-28T10:05:49.677Z,26.07
2023-03-28T10:11:09.649Z,25.87
2023-03-28T10:16:17.930Z,26.45
2023-03-28T10:21:36.258Z,26.61
2023-03-28T10:26:48.790Z,26.80
2023-03-28T10:31:54.404Z,26.54
2023-03-28T10:37:37.858Z,26.29
2023-03-28T10:43:02.898Z,27.42
2023-03-28T10:48:38.168Z,26.22
2023-03-28T10:54:16.291Z,26.10
2023-03-28T10:59:35.811Z,26.82
2023-03-28T11:05:01.645Z,27.66
2023-03-28T11:10:24.248Z,27.57
2023-03-28T11:15:49.646Z,28.02
2023-03-28T11:21:27.842Z,26.78
2023-03-28T11:27:15.442Z,26.92
2023-03-28T11:33:06.400Z,27.90
2023-03-28T11:38:29.245Z,27.31
2023-03-28T11:43:48.830Z,27.39
2023-03-28T11:49:14.654Z,27.81
2023-03-28T11:55:01.335Z,27.12
2023-03-28T12:00:32.173Z,28.52
2023-03-28T12:06:02.588Z,29.07
2023-03-28T12:11:29.957Z,29.42
2023-03-28T12:16:46.040Z,30.81
2023-03-28T12:22:03.914Z,31.02
2023-03-28T12:27:30.133Z,31.98
2023-03-28T12:32:53.714Z,30.64
2023-03-28T12:38:39.656Z,29.29
2023-03-28T12:44:07.746Z,29.42
2023-03-28T12:49:37.436Z,30.29
2023-03-28T12:55:02.620Z,29.11
2023-03-28T13:00:25.919Z,29.10
2023-03-28T13:06:15.003Z,29.40
2023-03-28T13:11:41.543Z,29.76
2023-03-28T13:17:01.739Z,30.15
2023-03-28T13:22:41.651Z,28.59
2023-03-28T13:27:50.298Z,30.55
2023-03-28T13:33:11.760Z,29.46
2023-03-28T13:38:35.460Z,29.67
2023-03-28T13:43:59.668Z,30.79
2023-03-28T13:49:22.354Z,30.20
2023-03-28T13:54:43.855Z,30.21
2023-03-28T14:00:00.780Z,30.00
2023-03-28T14:05:41.650Z,30.21
2023-03-28T14:10:53.593Z,30.67
2023-03-28T14:16:04.659Z,31.35
2023-03-28T14:21:19.385Z,31.63
2023-03-28T14:26:34.119Z,30.71
2023-03-28T14:31:53.441Z,30.71
2023-03-28T14:37:24.079Z,30.18
2023-03-28T14:42:37.315Z,31.85
2023-03-28T14:47:51.056Z,32.01
2023-03-28T14:53:04.379Z,31.93
2023-03-28T14:58:22.862Z,31.79
2023-03-28T15:03:43.096Z,30.38
2023-03-28T15:08:56.613Z,32.33
2023-03-28T15:14:19.590Z,32.09
2023-03-28T15:19:37.563Z,31.92
2023-03-28T15:24:48.670Z,31.38
2023-03-28T15:30:04.235Z,32.26
2023-03-28T15:35:41.263Z,31.07
2023-03-28T15:41:02.374Z,32.22
2023-03-28T15:46:18.153Z,32.11
2023-03-28T15:51:26.526Z,32.06
2023-03-28T15:56:42.665Z,32.56
2023-03-28T16:01:51.917Z,33.16
2023-03-28T16:07:22.435Z,31.93
2023-03-28T16:12:34.399Z,33.58
2023-03-28T16:18:01.882Z,33.49
2023-03-28T16:23:30.704Z,33.38
2023-03-28T16:28:45.388Z,34.73
2023-03-28T16:33:58.810Z,33.49
2023-03-28T16:39:13.108Z,34.29
2023-03-28T16:44:26.322Z,33.86
2023-03-28T16:49:38.929Z,33.56
2023-03-28T16:54:52.138Z,33.30
2023-03-28T17:00:04.858Z,36.67
2023-03-28T17:05:18.125Z,34.62
2023-03-28T17:10:24.333Z,34.77
2023-03-28T17:15:34.414Z,37.09
2023-03-28T17:20:41.376Z,36.24
2023-03-28T17:25:54.726Z,36.17
2023-03-28T17:31:01.941Z,34.59
2023-03-28T17:36:22.902Z,33.47
2023-03-28T17:41:34.728Z,36.52
2023-03-28T17:46:46.604Z,35.67
2023-03-28T17:51:53.395Z,35.27
2023-03-28T17:57:00.820Z,35.16
2023-03-28T18:02:05.951Z,35.03
2023-03-28T18:07:16.015Z,35.09
2023-03-28T18:12:22.780Z,35.92
2023-03-28T18:17:28.899Z,35.49
2023-03-28T18:22:35.026Z,35.46
2023-03-28T18:27:40.056Z,35.28
2023-03-28T18:32:45.202Z,35.53
2023-03-28T18:37:50.926Z,35.08
2023-03-28T18:42:56.048Z,36.92
2023-03-28T18:48:01.542Z,37.88
2023-03-28T18:53:06.581Z,38.49
2023-03-28T18:58:12.755Z,37.51
2023-03-28T19:03:18.627Z,39.42
2023-03-28T19:08:24.723Z,37.91
2023-03-28T19:13:31.389Z,36.93
2023-03-28T19:18:43.255Z,37.82
2023-03-28T19:23:50.138Z,39.48
2023-03-28T19:28:54.875Z,40.29
2023-03-28T19:34:00.527Z,39.22
2023-03-28T19:39:05.685Z,38.63
2023-03-28T19:44:29.429Z,39.19
2023-03-28T19:49:37.424Z,41.00
2023-03-28T19:54:43.987Z,37.58
2023-03-28T19:59:49.073Z,37.88
2023-03-28T20:04:55.053Z,38.24
2023-03-28T20:10:01.095Z,37.51
2023-03-28T20:15:06.848Z,37.34
2023-03-28T20:20:12.222Z,38.41
2023-03-28T20:25:18.515Z,39.10
2023-03-28T20:30:23.965Z,38.31
2023-03-28T20:35:29.491Z,39.20
2023-03-28T20:40:35.699Z,40.94
2023-03-28T20:45:41.021Z,39.15
2023-03-28T20:50:48.546Z,39.52
2023-03-28T20:56:04.861Z,38.66
2023-03-28T21:01:13.422Z,40.28
2023-03-28T21:06:22.682Z,38.56
2023-03-28T21:11:28.525Z,38.21
2023-03-28T21:16:34.814Z,40.98
2023-03-28T21:21:40.480Z,40.95
2023-03-28T21:26:45.771Z,39.63
2023-03-28T21:31:51.313Z,39.23
2023-03-28T21:36:56.721Z,39.95
2023-03-28T21:42:02.101Z,39.42
2023-03-28T21:47:09.381Z,39.54
2023-03-28T21:52:15.113Z,39.60
2023-03-28T21:57:20.424Z,39.96
2023-03-28T22:02:26.047Z,40.27
2023-03-28T22:07:31.412Z,40.31
2023-03-28T22:12:38.009Z,40.62
2023-03-28T22:17:44.329Z,40.28
2023-03-28T22:22:50.274Z,39.68
2023-03-28T22:27:56.146Z,40.44
2023-03-28T22:33:01.710Z,39.68
2023-03-28T22:38:09.241Z,40.07
2023-03-28T22:43:14.471Z,40.21
2023-03-28T22:48:21.446Z,40.00
2023-03-28T22:53:28.210Z,39.67
2023-03-28T22:58:33.478Z,39.72
2023-03-28T23:03:38.704Z,39.56
2023-03-28T23:08:45.404Z,39.17
2023-03-28T23:13:50.404Z,39.49
2023-03-28T23:18:55.468Z,41.30
2023-03-28T23:24:02.514Z,38.46
2023-03-28T23:29:07.802Z,38.44
2023-03-28T23:34:14.018Z,37.82
2023-03-28T23:39:19.060Z,38.39
2023-03-28T23:44:24.131Z,37.64
2023-03-28T23:49:29.557Z,37.86
2023-03-28T23:54:35.084Z,38.07
2023-03-28T23:59:40.545Z,37.59
